Time,TemperatureF,DewpointF,PressureIn,WindDirection,WindDirectionDegrees,WindSpeedMPH,WindSpeedGustMPH,Humidity,HourlyPrecipIn,Conditions,Clouds,dailyrainin,SoftwareType,DateUTC
2013-02-04 00:00:00,21.3,16.4,30.18,West,261,0.0,11.0,81,0.00,,,0.00,VWS V14.01,2013-02-04 05:00:00,
2013-02-04 00:02:00,21.1,16.2,30.18,West,261,0.0,11.0,81,0.00,,,0.00,VWS V14.01,2013-02-04 05:02:00,
2013-02-04 00:07:00,20.8,16.2,30.18,West,261,0.0,11.0,82,0.00,,,0.00,VWS V14.01,2013-02-04 05:07:00,
2013-02-04 00:10:00,20.6,16.0,30.18,West,261,0.0,11.0,82,0.00,,,0.00,VWS V14.01,2013-02-04 05:10:00,
2013-02-04 00:12:00,20.6,16.3,30.18,West,261,0.0,11.0,83,0.00,,,0.00,VWS V14.01,2013-02-04 05:12:00,
2013-02-04 00:17:00,20.6,16.3,30.18,West,261,0.0,11.0,83,0.00,,,0.00,VWS V14.01,2013-02-04 05:17:00,
2013-02-04 00:20:00,20.6,16.3,30.18,West,261,0.0,11.0,83,0.00,,,0.00,VWS V14.01,2013-02-04 05:20:00,
2013-02-04 00:22:00,20.6,16.3,30.18,West,261,0.0,11.0,83,0.00,,,0.00,VWS V14.01,2013-02-04 05:22:00,
2013-02-04 00:27:00,20.5,15.9,30.18,West,261,0.0,11.0,82,0.00,,,0.00,VWS V14.01,2013-02-04 05:27:00,
2013-02-04 00:30:00,20.5,15.9,30.17,West,261,0.0,11.0,82,0.00,,,0.00,VWS V14.01,2013-02-04 05:30:00,
2013-02-04 00:32:00,20.3,15.7,30.17,West,261,0.0,11.0,82,0.00,,,0.00,VWS V14.01,2013-02-04 05:32:00,
2013-02-04 00:37:00,20.2,15.6,30.17,West,261,0.0,11.0,82,0.00,,,0.00,VWS V14.01,2013-02-04 05:37:00,
2013-02-04 00:40:00,20.0,15.7,30.17,West,261,0.0,11.0,83,0.00,,,0.00,VWS V14.01,2013-02-04 05:40:00,
2013-02-04 00:42:00,20.0,15.7,30.17,West,261,0.0,11.0,83,0.00,,,0.00,VWS V14.01,2013-02-04 05:42:00,
2013-02-04 00:47:00,20.0,15.7,30.17,West,261,0.0,11.0,83,0.00,,,0.00,VWS V14.01,2013-02-04 05:47:00,
2013-02-04 00:50:00,20.2,15.9,30.17,West,261,0.0,11.0,83,0.00,,,0.00,VWS V14.01,2013-02-04 05:50:00,
2013-02-04 00:52:00,20.2,15.9,30.17,West,261,0.0,11.0,83,0.00,,,0.00,VWS V14.01,2013-02-04 05:52:00,
2013-02-04 00:57:00,20.2,15.9,30.17,West,261,0.0,11.0,83,0.00,,,0.00,VWS V14.01,2013-02-04 05:57:00,
2013-02-04 01:00:00,20.0,15.4,30.17,West,261,0.0,11.0,82,0.00,,,0.00,VWS V14.01,2013-02-04 06:00:00,
2013-02-04 01:02:00,20.0,15.7,30.17,West,261,0.0,11.0,83,0.00,,,0.00,VWS V14.01,2013-02-04 06:02:00,
2013-02-04 01:07:00,20.6,16.5,30.17,West,261,0.0,11.0,84,0.00,,,0.00,VWS V14.01,2013-02-04 06:07:00,
2013-02-04 01:10:00,20.8,16.7,30.17,West,261,0.0,11.0,84,0.00,,,0.00,VWS V14.01,2013-02-04 06:10:00,
2013-02-04 01:12:00,20.6,16.3,30.17,West,261,0.0,11.0,83,0.00,,,0.00,VWS V14.01,2013-02-04 06:12:00,
2013-02-04 01:17:00,20.3,16.0,30.18,West,261,0.0,11.0,83,0.00,,,0.00,VWS V14.01,2013-02-04 06:17:00,
2013-02-04 01:20:00,20.3,16.0,30.18,West,261,0.0,11.0,83,0.00,,,0.00,VWS V14.01,2013-02-04 06:20:00,
2013-02-04 01:22:00,20.3,16.0,30.18,West,261,0.0,11.0,83,0.00,,,0.00,VWS V14.01,2013-02-04 06:22:00,
2013-02-04 01:27:00,19.9,15.3,30.18,West,261,0.0,11.0,82,0.00,,,0.00,VWS V14.01,2013-02-04 06:27:00,
2013-02-04 01:30:00,19.5,14.9,30.19,West,261,0.0,11.0,82,0.00,,,0.00,VWS V14.01,2013-02-04 06:30:00,
2013-02-04 01:32:00,19.5,14.9,30.19,West,261,0.0,11.0,82,0.00,,,0.00,VWS V14.01,2013-02-04 06:32:00,
2013-02-04 01:37:00,19.5,15.2,30.19,West,261,0.0,11.0,83,0.00,,,0.00,VWS V14.01,2013-02-04 06:37:00,
2013-02-04 01:40:00,19.5,15.2,30.19,West,261,0.0,11.0,83,0.00,,,0.00,VWS V14.01,2013-02-04 06:40:00,
2013-02-04 01:42:00,19.5,15.2,30.19,West,261,0.0,11.0,83,0.00,,,0.00,VWS V14.01,2013-02-04 06:42:00,
2013-02-04 01:47:00,19.5,15.2,30.20,West,261,0.0,11.0,83,0.00,,,0.00,VWS V14.01,2013-02-04 06:47:00,
2013-02-04 01:50:00,19.7,15.7,30.20,West,261,0.0,11.0,84,0.00,,,0.00,VWS V14.01,2013-02-04 06:50:00,
2013-02-04 01:52:00,19.9,15.9,30.20,West,261,0.0,11.0,84,0.00,,,0.00,VWS V14.01,2013-02-04 06:52:00,
2013-02-04 01:57:00,19.9,15.9,30.20,West,261,0.0,11.0,84,0.00,,,0.00,VWS V14.01,2013-02-04 06:57:00,
2013-02-04 02:00:00,19.9,15.9,30.20,West,261,0.0,11.0,84,0.00,,,0.00,VWS V14.01,2013-02-04 07:00:00,
2013-02-04 02:02:00,19.7,15.4,30.20,West,261,0.0,11.0,83,0.00,,,0.00,VWS V14.01,2013-02-04 07:02:00,
2013-02-04 02:07:00,19.2,14.6,30.20,West,261,0.0,11.0,82,0.00,,,0.00,VWS V14.01,2013-02-04 07:07:00,
2013-02-04 02:10:00,18.8,14.2,30.20,West,261,0.0,11.0,82,0.00,,,0.00,VWS V14.01,2013-02-04 07:10:00,
2013-02-04 02:12:00,18.3,13.7,30.20,West,261,0.0,11.0,82,0.00,,,0.00,VWS V14.01,2013-02-04 07:12:00,
2013-02-04 02:17:00,17.8,13.5,30.19,West,261,0.0,11.0,83,0.00,,,0.00,VWS V14.01,2013-02-04 07:17:00,
2013-02-04 02:20:00,17.5,13.2,30.19,West,261,0.0,11.0,83,0.00,,,0.00,VWS V14.01,2013-02-04 07:20:00,
2013-02-04 02:22:00,17.3,13.0,30.19,West,261,0.0,11.0,83,0.00,,,0.00,VWS V14.01,2013-02-04 07:22:00,
2013-02-04 02:27:00,17.2,13.2,30.19,West,261,0.0,11.0,84,0.00,,,0.00,VWS V14.01,2013-02-04 07:27:00,
2013-02-04 02:30:00,17.0,13.0,30.17,West,261,0.0,11.0,84,0.00,,,0.00,VWS V14.01,2013-02-04 07:30:00,
2013-02-04 02:32:00,16.9,12.9,30.17,West,261,0.0,11.0,84,0.00,,,0.00,VWS V14.01,2013-02-04 07:32:00,
2013-02-04 02:50:00,17.2,13.5,30.16,West,261,0.0,11.0,85,0.00,,,0.00,VWS V14.01,2013-02-04 07:50:00,
2013-02-04 02:52:00,17.0,13.3,30.16,West,261,0.0,11.0,85,0.00,,,0.00,VWS V14.01,2013-02-04 07:52:00,
2013-02-04 02:57:00,16.9,13.2,30.16,West,261,0.0,11.0,85,0.00,,,0.00,VWS V14.01,2013-02-04 07:57:00,
2013-02-04 03:02:00,17.0,13.5,30.15,West,261,0.0,11.0,86,0.00,,,0.00,VWS V14.01,2013-02-04 08:02:00,
2013-02-04 03:10:00,17.3,13.8,30.15,West,261,0.0,11.0,86,0.00,,,0.00,VWS V14.01,2013-02-04 08:10:00,
2013-02-04 03:17:00,17.3,13.8,30.15,West,261,0.0,11.0,86,0.00,,,0.00,VWS V14.01,2013-02-04 08:17:00,
2013-02-04 03:22:00,17.5,14.0,30.15,West,261,0.0,11.0,86,0.00,,,0.00,VWS V14.01,2013-02-04 08:22:00,
2013-02-04 03:27:00,17.7,14.2,30.15,West,261,0.0,11.0,86,0.00,,,0.00,VWS V14.01,2013-02-04 08:27:00,
2013-02-04 03:32:00,17.8,14.3,30.14,West,261,0.0,11.0,86,0.00,,,0.00,VWS V14.01,2013-02-04 08:32:00,
2013-02-04 03:40:00,18.0,14.5,30.14,West,261,0.0,11.0,86,0.00,,,0.00,VWS V14.01,2013-02-04 08:40:00,
2013-02-04 03:42:00,16.9,13.2,30.17,West,261,0.0,11.0,85,0.00,,,0.00,VWS V14.01,2013-02-04 08:42:00,
2013-02-04 03:47:00,17.0,13.3,30.17,West,261,0.0,11.0,85,0.00,,,0.00,VWS V14.01,2013-02-04 08:47:00,
2013-02-04 03:50:00,18.3,14.6,30.15,West,261,0.0,11.0,85,0.00,,,0.00,VWS V14.01,2013-02-04 08:50:00,
2013-02-04 03:52:00,17.2,13.5,30.16,West,261,0.0,11.0,85,0.00,,,0.00,VWS V14.01,2013-02-04 08:52:00,
2013-02-04 04:05:00,16.9,13.2,30.15,West,261,0.0,11.0,85,0.00,,,0.00,VWS V14.01,2013-02-04 09:05:00,
2013-02-04 04:12:00,17.3,13.8,30.15,West,261,0.0,11.0,86,0.00,,,0.00,VWS V14.01,2013-02-04 09:12:00,
2013-02-04 04:17:00,17.5,14.0,30.15,West,261,0.0,11.0,86,0.00,,,0.00,VWS V14.01,2013-02-04 09:17:00,
2013-02-04 04:25:00,17.3,13.8,30.15,West,261,0.0,11.0,86,0.00,,,0.00,VWS V14.01,2013-02-04 09:25:00,
2013-02-04 04:35:00,17.8,14.3,30.14,West,261,0.0,11.0,86,0.00,,,0.00,VWS V14.01,2013-02-04 09:35:00,
2013-02-04 04:42:00,18.0,14.5,30.14,West,261,0.0,11.0,86,0.00,,,0.00,VWS V14.01,2013-02-04 09:42:00,
2013-02-04 04:47:00,18.1,14.6,30.14,West,261,0.0,11.0,86,0.00,,,0.00,VWS V14.01,2013-02-04 09:47:00,
2013-02-04 05:02:00,18.3,14.6,30.15,West,261,0.0,11.0,85,0.00,,,0.00,VWS V14.01,2013-02-04 10:02:00,
2013-02-04 05:07:00,18.1,14.1,30.15,West,261,0.0,11.0,84,0.00,,,0.00,VWS V14.01,2013-02-04 10:07:00,
2013-02-04 05:12:00,18.1,14.4,30.15,West,261,0.0,11.0,85,0.00,,,0.00,VWS V14.01,2013-02-04 10:12:00,
2013-02-04 05:17:00,18.4,14.6,30.15,West,261,0.0,11.0,85,0.00,,,0.00,VWS V14.01,2013-02-04 10:17:00,
2013-02-04 05:25:00,18.6,14.9,30.16,West,261,0.0,11.0,85,0.00,,,0.00,VWS V14.01,2013-02-04 10:25:00,
2013-02-04 05:32:00,18.6,14.9,30.16,West,261,0.0,11.0,85,0.00,,,0.00,VWS V14.01,2013-02-04 10:32:00,
2013-02-04 05:38:00,18.8,15.1,30.17,West,261,0.0,11.0,85,0.00,,,0.00,VWS V14.01,2013-02-04 10:38:00,
2013-02-04 05:43:00,18.9,15.1,30.17,West,261,0.0,11.0,85,0.00,,,0.00,VWS V14.01,2013-02-04 10:43:00,
2013-02-04 05:48:00,18.9,14.9,30.17,West,261,0.0,11.0,84,0.00,,,0.00,VWS V14.01,2013-02-04 10:48:00,
2013-02-04 05:53:00,18.9,14.9,30.18,West,261,0.0,11.0,84,0.00,,,0.00,VWS V14.01,2013-02-04 10:53:00,
2013-02-04 05:58:00,18.8,14.8,30.18,West,261,0.0,11.0,84,0.00,,,0.00,VWS V14.01,2013-02-04 10:58:00,
2013-02-04 06:03:00,18.4,14.1,30.18,West,261,0.0,11.0,83,0.00,,,0.00,VWS V14.01,2013-02-04 11:03:00,
2013-02-04 06:08:00,18.1,13.8,30.18,West,261,0.0,11.0,83,0.00,,,0.00,VWS V14.01,2013-02-04 11:08:00,
2013-02-04 06:13:00,17.8,13.5,30.18,West,261,0.0,11.0,83,0.00,,,0.00,VWS V14.01,2013-02-04 11:13:00,
2013-02-04 06:18:00,17.5,13.2,30.18,West,261,0.0,11.0,83,0.00,,,0.00,VWS V14.01,2013-02-04 11:18:00,
2013-02-04 06:23:00,17.3,13.3,30.17,West,261,0.0,11.0,84,0.00,,,0.00,VWS V14.01,2013-02-04 11:23:00,
2013-02-04 06:28:00,17.5,13.5,30.17,West,261,0.0,11.0,84,0.00,,,0.00,VWS V14.01,2013-02-04 11:28:00,
2013-02-04 06:33:00,17.7,14.0,30.17,West,261,0.0,11.0,85,0.00,,,0.00,VWS V14.01,2013-02-04 11:33:00,
2013-02-04 06:38:00,18.0,14.3,30.16,West,261,0.0,11.0,85,0.00,,,0.00,VWS V14.01,2013-02-04 11:38:00,
2013-02-04 06:43:00,18.1,14.4,30.16,West,261,0.0,11.0,85,0.00,,,0.00,VWS V14.01,2013-02-04 11:43:00,
2013-02-04 06:48:00,18.3,14.6,30.16,West,261,0.0,11.0,85,0.00,,,0.00,VWS V14.01,2013-02-04 11:48:00,
2013-02-04 06:53:00,18.4,14.6,30.16,West,260,0.0,11.0,85,0.00,,,0.00,VWS V14.01,2013-02-04 11:53:00,
2013-02-04 06:58:00,18.8,15.1,30.16,West,260,0.0,11.0,85,0.00,,,0.00,VWS V14.01,2013-02-04 11:58:00,
2013-02-04 07:03:00,18.9,15.1,30.16,SSE,153,0.0,11.0,85,0.00,,,0.00,VWS V14.01,2013-02-04 12:03:00,
2013-02-04 07:08:00,19.2,15.2,30.14,SSE,150,0.0,11.0,84,0.00,,,0.00,VWS V14.01,2013-02-04 12:08:00,
2013-02-04 07:13:00,19.4,15.4,30.14,SSE,150,0.0,11.0,84,0.00,,,0.00,VWS V14.01,2013-02-04 12:13:00,
2013-02-04 07:18:00,19.7,15.7,30.14,SSE,150,0.0,11.0,84,0.00,,,0.00,VWS V14.01,2013-02-04 12:18:00,
2013-02-04 07:23:00,20.0,15.9,30.14,SSE,150,0.0,11.0,84,0.00,,,0.00,VWS V14.01,2013-02-04 12:23:00,
2013-02-04 07:28:00,20.2,16.1,30.14,SSE,150,0.0,11.0,84,0.00,,,0.00,VWS V14.01,2013-02-04 12:28:00,
2013-02-04 07:33:00,20.5,16.4,30.14,SSE,150,1.0,11.0,84,0.00,,,0.00,VWS V14.01,2013-02-04 12:33:00,
2013-02-04 07:38:00,20.5,16.2,30.14,SSE,150,0.0,11.0,83,0.00,,,0.00,VWS V14.01,2013-02-04 12:38:00,
2013-02-04 07:43:00,20.6,16.3,30.14,SSE,150,2.0,11.0,83,0.00,,,0.00,VWS V14.01,2013-02-04 12:43:00,
2013-02-04 07:48:00,20.6,16.3,30.14,SSE,150,0.0,11.0,83,0.00,,,0.00,VWS V14.01,2013-02-04 12:48:00,
2013-02-04 07:53:00,20.6,16.0,30.14,SSE,150,0.0,11.0,82,0.00,,,0.00,VWS V14.01,2013-02-04 12:53:00,
2013-02-04 07:58:00,20.6,16.0,30.14,SSE,150,1.0,11.0,82,0.00,,,0.00,VWS V14.01,2013-02-04 12:58:00,
2013-02-04 08:03:00,20.8,16.2,30.14,SSE,150,0.0,11.0,82,0.00,,,0.00,VWS V14.01,2013-02-04 13:03:00,
2013-02-04 08:08:00,20.8,16.2,30.14,SE,140,0.0,11.0,82,0.00,,,0.00,VWS V14.01,2013-02-04 13:08:00,
2013-02-04 08:13:00,21.0,16.4,30.14,SE,141,3.0,11.0,82,0.00,,,0.00,VWS V14.01,2013-02-04 13:13:00,
2013-02-04 08:18:00,21.1,16.5,30.14,SE,128,0.0,11.0,82,0.00,,,0.00,VWS V14.01,2013-02-04 13:18:00,
2013-02-04 08:23:00,21.4,16.8,30.14,SE,134,2.0,11.0,82,0.00,,,0.00,VWS V14.01,2013-02-04 13:23:00,
2013-02-04 08:28:00,21.6,17.0,30.14,SE,139,2.0,11.0,82,0.00,,,0.00,VWS V14.01,2013-02-04 13:28:00,
2013-02-04 08:33:00,21.8,16.9,30.14,SE,140,2.0,11.0,81,0.00,,,0.00,VWS V14.01,2013-02-04 13:33:00,
2013-02-04 08:38:00,21.9,17.0,30.13,SE,127,4.0,11.0,81,0.00,,,0.00,VWS V14.01,2013-02-04 13:38:00,
2013-02-04 08:43:00,22.1,16.9,30.13,SE,134,4.0,11.0,80,0.00,,,0.00,VWS V14.01,2013-02-04 13:43:00,
2013-02-04 08:48:00,22.2,17.0,30.13,SE,137,3.0,11.0,80,0.00,,,0.00,VWS V14.01,2013-02-04 13:48:00,
2013-02-04 08:54:00,22.5,17.3,30.12,SE,141,3.0,11.0,80,0.00,,,0.00,VWS V14.01,2013-02-04 13:54:00,
2013-02-04 08:59:00,22.9,17.4,30.12,SE,126,2.0,11.0,79,0.00,,,0.00,VWS V14.01,2013-02-04 13:59:00,
2013-02-04 09:04:00,23.2,17.7,30.12,SE,134,3.0,11.0,79,0.00,,,0.00,VWS V14.01,2013-02-04 14:04:00,
2013-02-04 09:09:00,23.5,18.0,30.12,SSE,154,4.0,11.0,79,0.00,,,0.00,VWS V14.01,2013-02-04 14:09:00,
2013-02-04 09:14:00,23.8,18.0,30.12,SSE,147,4.0,11.0,78,0.00,,,0.00,VWS V14.01,2013-02-04 14:14:00,
2013-02-04 09:19:00,24.1,18.2,30.12,SE,133,4.0,11.0,78,0.00,,,0.00,VWS V14.01,2013-02-04 14:19:00,
2013-02-04 09:24:00,24.7,18.8,30.10,SSE,148,4.0,11.0,78,0.00,,,0.00,VWS V14.01,2013-02-04 14:24:00,
2013-02-04 09:29:00,25.1,19.2,30.10,SE,130,1.0,11.0,78,0.00,,,0.00,VWS V14.01,2013-02-04 14:29:00,
2013-02-04 09:34:00,25.7,19.5,30.10,SSE,157,2.0,11.0,77,0.00,,,0.00,VWS V14.01,2013-02-04 14:34:00,
2013-02-04 09:39:00,26.1,19.6,30.10,SE,146,6.0,11.0,76,0.00,,,0.00,VWS V14.01,2013-02-04 14:39:00,
2013-02-04 09:44:00,26.7,20.2,30.10,SSE,161,1.0,11.0,76,0.00,,,0.00,VWS V14.01,2013-02-04 14:44:00,
2013-02-04 09:49:00,27.2,20.3,30.10,SE,132,7.0,11.0,75,0.00,,,0.00,VWS V14.01,2013-02-04 14:49:00,
2013-02-04 09:54:00,27.3,20.1,30.10,South,171,3.0,11.0,74,0.00,,,0.00,VWS V14.01,2013-02-04 14:54:00,
2013-02-04 09:59:00,27.8,20.6,30.10,South,175,2.0,11.0,74,0.00,,,0.00,VWS V14.01,2013-02-04 14:59:00,
2013-02-04 10:04:00,28.1,20.9,30.09,SSW,210,3.0,11.0,74,0.00,,,0.00,VWS V14.01,2013-02-04 15:04:00,
2013-02-04 10:09:00,28.7,21.5,30.09,SSE,148,4.0,11.0,74,0.00,,,0.00,VWS V14.01,2013-02-04 15:09:00,
2013-02-04 10:14:00,29.0,21.4,30.09,SE,133,3.0,11.0,73,0.00,,,0.00,VWS V14.01,2013-02-04 15:14:00,
2013-02-04 10:19:00,29.1,21.5,30.08,SSE,150,2.0,11.0,73,0.00,,,0.00,VWS V14.01,2013-02-04 15:19:00,
2013-02-04 10:24:00,29.3,21.7,30.08,SSE,150,4.0,11.0,73,0.00,,,0.00,VWS V14.01,2013-02-04 15:24:00,
2013-02-04 10:29:00,29.5,21.9,30.08,South,180,6.0,11.0,73,0.00,,,0.00,VWS V14.01,2013-02-04 15:29:00,
2013-02-04 10:34:00,30.0,22.4,30.08,SE,140,3.0,11.0,73,0.00,,,0.00,VWS V14.01,2013-02-04 15:34:00,
2013-02-04 10:39:00,30.1,21.9,30.08,SE,144,6.0,11.0,71,0.00,,,0.00,VWS V14.01,2013-02-04 15:39:00,
2013-02-04 10:44:00,30.4,22.1,30.08,SSW,211,4.0,11.0,71,0.00,,,0.00,VWS V14.01,2013-02-04 15:44:00,
2013-02-04 10:49:00,30.9,22.3,30.07,SSW,192,3.0,11.0,70,0.00,,,0.00,VWS V14.01,2013-02-04 15:49:00,
2013-02-04 10:54:00,31.2,22.6,30.07,South,187,2.0,11.0,70,0.00,,,0.00,VWS V14.01,2013-02-04 15:54:00,
2013-02-04 10:59:00,31.6,22.3,30.07,SE,144,7.0,11.0,68,0.00,,,0.00,VWS V14.01,2013-02-04 15:59:00,
2013-02-04 11:04:00,31.9,22.5,30.06,SSE,161,4.0,11.0,68,0.00,,,0.00,VWS V14.01,2013-02-04 16:04:00,
2013-02-04 11:09:00,32.4,22.3,30.06,SSE,150,2.0,11.0,66,0.00,,,0.00,VWS V14.01,2013-02-04 16:09:00,
2013-02-04 11:14:00,32.7,22.2,30.06,South,182,1.0,11.0,65,0.00,,,0.00,VWS V14.01,2013-02-04 16:14:00,
2013-02-04 11:19:00,32.9,21.7,30.06,SSE,155,2.0,11.0,63,0.00,,,0.00,VWS V14.01,2013-02-04 16:19:00,
2013-02-04 11:24:00,33.1,21.1,30.06,SSE,153,7.0,11.0,61,0.00,,,0.00,VWS V14.01,2013-02-04 16:24:00,
2013-02-04 11:29:00,33.4,21.8,30.06,SSE,165,9.0,11.0,62,0.00,,,0.00,VWS V14.01,2013-02-04 16:29:00,
2013-02-04 11:34:00,33.7,22.1,30.04,SSE,152,4.0,11.0,62,0.00,,,0.00,VWS V14.01,2013-02-04 16:34:00,
2013-02-04 11:39:00,34.1,21.3,30.04,South,169,2.0,11.0,59,0.00,,,0.00,VWS V14.01,2013-02-04 16:39:00,
2013-02-04 11:44:00,34.7,22.2,30.04,SSE,150,6.0,11.0,60,0.00,,,0.00,VWS V14.01,2013-02-04 16:44:00,
2013-02-04 11:49:00,35.0,22.1,30.03,South,176,3.0,11.0,59,0.00,,,0.00,VWS V14.01,2013-02-04 16:49:00,
2013-02-04 11:54:00,35.6,22.7,30.03,SSE,153,3.0,11.0,59,0.00,,,0.00,VWS V14.01,2013-02-04 16:54:00,
2013-02-04 11:59:00,35.8,22.1,30.03,SSE,149,4.0,11.0,57,0.00,,,0.00,VWS V14.01,2013-02-04 16:59:00,
2013-02-04 12:04:00,35.8,22.1,30.02,SSE,155,6.0,11.0,57,0.00,,,0.00,VWS V14.01,2013-02-04 17:04:00,
2013-02-04 12:09:00,35.9,22.2,30.02,SSE,163,4.0,11.0,57,0.01,,,0.01,VWS V14.01,2013-02-04 17:09:00,
2013-02-04 12:14:00,36.3,22.1,30.02,SSE,150,5.0,11.0,56,0.01,,,0.01,VWS V14.01,2013-02-04 17:14:00,
2013-02-04 12:19:00,36.8,22.2,30.01,SSE,161,3.0,11.0,55,0.01,,,0.01,VWS V14.01,2013-02-04 17:19:00,
2013-02-04 12:24:00,37.0,21.9,30.01,SSE,163,3.0,11.0,54,0.01,,,0.01,VWS V14.01,2013-02-04 17:24:00,
2013-02-04 12:29:00,37.3,22.2,30.01,SSW,200,1.0,11.0,54,0.01,,,0.01,VWS V14.01,2013-02-04 17:29:00,
2013-02-04 12:34:00,37.5,22.4,30.00,South,173,6.0,11.0,54,0.01,,,0.01,VWS V14.01,2013-02-04 17:34:00,
2013-02-04 12:39:00,37.8,21.8,30.00,SW,227,4.0,11.0,52,0.01,,,0.01,VWS V14.01,2013-02-04 17:39:00,
2013-02-04 12:44:00,38.0,22.4,30.00,South,188,2.0,11.0,53,0.01,,,0.01,VWS V14.01,2013-02-04 17:44:00,
2013-02-04 12:49:00,38.3,22.7,30.00,SSW,209,6.0,11.0,53,0.01,,,0.01,VWS V14.01,2013-02-04 17:49:00,
2013-02-04 12:54:00,38.5,22.4,30.00,SSW,192,4.0,11.0,52,0.01,,,0.01,VWS V14.01,2013-02-04 17:54:00,
2013-02-04 12:59:00,38.6,22.5,30.00,South,169,5.0,11.0,52,0.01,,,0.01,VWS V14.01,2013-02-04 17:59:00,
2013-02-04 13:04:00,38.8,22.7,29.98,SSW,202,6.0,11.0,52,0.01,,,0.01,VWS V14.01,2013-02-04 18:04:00,
2013-02-04 13:09:00,39.1,22.5,29.98,SSW,196,5.0,11.0,51,0.01,,,0.01,VWS V14.01,2013-02-04 18:09:00,
2013-02-04 13:14:00,39.2,22.1,29.98,SSW,205,4.0,11.0,50,0.01,,,0.01,VWS V14.01,2013-02-04 18:14:00,
2013-02-04 13:19:00,39.3,22.2,29.97,SSW,196,3.0,11.0,50,0.00,,,0.01,VWS V14.01,2013-02-04 18:19:00,
2013-02-04 13:24:00,39.3,22.2,29.97,SSW,211,7.0,11.0,50,0.00,,,0.01,VWS V14.01,2013-02-04 18:24:00,
2013-02-04 13:29:00,39.5,22.9,29.97,SSW,194,7.0,11.0,51,0.00,,,0.01,VWS V14.01,2013-02-04 18:29:00,
2013-02-04 13:34:00,39.6,22.5,29.96,SSW,212,5.0,11.0,50,0.00,,,0.01,VWS V14.01,2013-02-04 18:34:00,
2013-02-04 13:39:00,39.8,22.7,29.96,South,171,6.0,11.0,50,0.00,,,0.01,VWS V14.01,2013-02-04 18:39:00,
2013-02-04 13:44:00,40.1,23.4,29.96,SW,226,7.0,11.0,51,0.00,,,0.01,VWS V14.01,2013-02-04 18:44:00,
2013-02-04 13:50:00,40.1,23.4,29.95,SSW,201,4.0,11.0,51,0.01,,,0.02,VWS V14.01,2013-02-04 18:50:00,
2013-02-04 13:55:00,40.3,23.6,29.95,SSE,159,4.0,11.0,51,0.01,,,0.02,VWS V14.01,2013-02-04 18:55:00,
2013-02-04 14:00:00,40.6,24.8,29.95,SSW,207,7.0,11.0,53,0.01,,,0.02,VWS V14.01,2013-02-04 19:00:00,
2013-02-04 14:05:00,40.8,24.5,29.95,SSW,211,5.0,11.0,52,0.01,,,0.02,VWS V14.01,2013-02-04 19:05:00,
2013-02-04 14:10:00,40.9,24.6,29.95,SSW,211,7.0,11.0,52,0.01,,,0.02,VWS V14.01,2013-02-04 19:10:00,
2013-02-04 14:15:00,41.1,25.3,29.95,SSW,196,6.0,11.0,53,0.01,,,0.02,VWS V14.01,2013-02-04 19:15:00,
2013-02-04 14:20:00,41.2,25.4,29.94,SW,222,7.0,11.0,53,0.01,,,0.02,VWS V14.01,2013-02-04 19:20:00,
2013-02-04 14:25:00,41.2,25.4,29.94,SSW,201,3.0,11.0,53,0.01,,,0.02,VWS V14.01,2013-02-04 19:25:00,
2013-02-04 14:30:00,41.3,25.0,29.94,SSW,204,7.0,11.0,52,0.01,,,0.02,VWS V14.01,2013-02-04 19:30:00,
2013-02-04 14:35:00,41.6,25.3,29.94,South,179,1.0,11.0,52,0.01,,,0.02,VWS V14.01,2013-02-04 19:35:00,
2013-02-04 14:40:00,42.1,26.2,29.94,South,188,6.0,11.0,53,0.01,,,0.02,VWS V14.01,2013-02-04 19:40:00,
2013-02-04 14:45:00,42.1,25.8,29.94,SSW,194,4.0,11.0,52,0.01,,,0.02,VWS V14.01,2013-02-04 19:45:00,
2013-02-04 14:50:00,42.2,25.9,29.93,SSW,200,4.0,11.0,52,0.01,,,0.02,VWS V14.01,2013-02-04 19:50:00,
2013-02-04 14:55:00,42.3,26.4,29.93,SSW,202,3.0,11.0,53,0.00,,,0.02,VWS V14.01,2013-02-04 19:55:00,
2013-02-04 15:00:00,42.3,26.4,29.93,SSW,200,5.0,11.0,53,0.00,,,0.02,VWS V14.01,2013-02-04 20:00:00,
2013-02-04 15:05:00,42.3,26.4,29.92,SSW,205,2.0,11.0,53,0.00,,,0.02,VWS V14.01,2013-02-04 20:05:00,
2013-02-04 15:10:00,42.5,26.6,29.92,SSW,212,3.0,11.0,53,0.00,,,0.02,VWS V14.01,2013-02-04 20:10:00,
2013-02-04 15:15:00,42.6,26.7,29.92,South,190,4.0,11.0,53,0.00,,,0.02,VWS V14.01,2013-02-04 20:15:00,
2013-02-04 15:20:00,42.8,26.9,29.91,SSW,211,2.0,11.0,53,0.00,,,0.02,VWS V14.01,2013-02-04 20:20:00,
2013-02-04 15:25:00,42.9,27.0,29.91,SW,227,4.0,11.0,53,0.00,,,0.02,VWS V14.01,2013-02-04 20:25:00,
2013-02-04 15:30:00,43.2,27.7,29.91,SW,221,1.0,11.0,54,0.00,,,0.02,VWS V14.01,2013-02-04 20:30:00,
2013-02-04 15:35:00,43.3,27.3,29.93,SW,230,2.0,11.0,53,0.00,,,0.02,VWS V14.01,2013-02-04 20:35:00,
2013-02-04 15:40:00,43.6,28.1,29.93,SW,225,1.0,11.0,54,0.00,,,0.02,VWS V14.01,2013-02-04 20:40:00,
2013-02-04 15:45:00,43.8,27.8,29.93,SSW,208,0.0,11.0,53,0.00,,,0.02,VWS V14.01,2013-02-04 20:45:00,
2013-02-04 15:50:00,44.2,28.2,29.92,SW,223,2.0,11.0,53,0.00,,,0.02,VWS V14.01,2013-02-04 20:50:00,
2013-02-04 15:55:00,44.6,28.5,29.92,SW,226,4.0,11.0,53,0.00,,,0.02,VWS V14.01,2013-02-04 20:55:00,
2013-02-04 16:00:00,45.1,29.0,29.92,SSW,209,4.0,11.0,53,0.00,,,0.02,VWS V14.01,2013-02-04 21:00:00,
2013-02-04 16:05:00,45.4,28.4,29.91,SW,214,3.0,11.0,51,0.00,,,0.02,VWS V14.01,2013-02-04 21:05:00,
2013-02-04 16:10:00,45.7,29.1,29.91,SW,216,3.0,11.0,52,0.00,,,0.02,VWS V14.01,2013-02-04 21:10:00,
2013-02-04 16:15:00,45.8,28.2,29.91,SW,216,3.0,11.0,50,0.00,,,0.02,VWS V14.01,2013-02-04 21:15:00,
2013-02-04 16:20:00,46.0,28.4,29.91,SW,217,3.0,11.0,50,0.00,,,0.02,VWS V14.01,2013-02-04 21:20:00,
2013-02-04 16:25:00,46.1,28.5,29.91,SW,216,5.0,11.0,50,0.00,,,0.02,VWS V14.01,2013-02-04 21:25:00,
2013-02-04 16:30:00,46.2,28.1,29.91,SW,217,4.0,11.0,49,0.00,,,0.02,VWS V14.01,2013-02-04 21:30:00,
2013-02-04 16:35:00,46.2,28.1,29.91,SW,226,3.0,11.0,49,0.00,,,0.02,VWS V14.01,2013-02-04 21:35:00,
2013-02-04 16:40:00,46.4,28.3,29.91,SW,225,4.0,11.0,49,0.00,,,0.02,VWS V14.01,2013-02-04 21:40:00,
2013-02-04 16:45:00,46.4,28.3,29.91,SW,214,3.0,11.0,49,0.00,,,0.02,VWS V14.01,2013-02-04 21:45:00,
2013-02-04 16:50:00,46.2,28.1,29.91,SW,224,4.0,11.0,49,0.00,,,0.02,VWS V14.01,2013-02-04 21:50:00,
2013-02-04 16:55:00,46.2,28.1,29.91,SW,219,3.0,11.0,49,0.00,,,0.02,VWS V14.01,2013-02-04 21:55:00,
2013-02-04 17:00:00,46.2,28.6,29.91,SW,226,1.0,11.0,50,0.00,,,0.02,VWS V14.01,2013-02-04 22:00:00,
2013-02-04 17:05:00,46.1,28.5,29.92,SW,231,3.0,11.0,50,0.00,,,0.02,VWS V14.01,2013-02-04 22:05:00,
2013-02-04 17:10:00,46.1,29.0,29.92,SSW,213,5.0,11.0,51,0.00,,,0.02,VWS V14.01,2013-02-04 22:10:00,
2013-02-04 17:15:00,46.1,29.0,29.92,SSW,207,6.0,11.0,51,0.00,,,0.02,VWS V14.01,2013-02-04 22:15:00,
2013-02-04 17:20:00,46.2,29.6,29.92,WSW,241,2.0,11.0,52,0.00,,,0.02,VWS V14.01,2013-02-04 22:20:00,
2013-02-04 17:25:00,46.2,29.6,29.92,SW,225,3.0,11.0,52,0.00,,,0.02,VWS V14.01,2013-02-04 22:25:00,
2013-02-04 17:31:00,46.2,30.0,29.92,SW,219,4.0,11.0,53,0.00,,,0.02,VWS V14.01,2013-02-04 22:31:00,
2013-02-04 17:36:00,46.1,29.9,29.92,SW,236,6.0,11.0,53,0.00,,,0.02,VWS V14.01,2013-02-04 22:36:00,
2013-02-04 17:41:00,46.1,30.4,29.92,SW,229,5.0,11.0,54,0.00,,,0.02,VWS V14.01,2013-02-04 22:41:00,
2013-02-04 17:46:00,46.0,30.3,29.92,WSW,252,2.0,11.0,54,0.00,,,0.02,VWS V14.01,2013-02-04 22:46:00,
2013-02-04 17:51:00,45.8,31.0,29.92,SSW,200,2.0,11.0,56,0.00,,,0.02,VWS V14.01,2013-02-04 22:51:00,
2013-02-04 17:56:00,45.7,30.9,29.92,SW,236,6.0,11.0,56,0.00,,,0.02,VWS V14.01,2013-02-04 22:56:00,
2013-02-04 18:01:00,45.4,31.5,29.92,West,264,5.0,11.0,58,0.00,,,0.02,VWS V14.01,2013-02-04 23:01:00,
2013-02-04 18:06:00,45.4,31.5,29.92,SW,232,3.0,11.0,58,0.00,,,0.02,VWS V14.01,2013-02-04 23:06:00,
2013-02-04 18:11:00,45.2,31.7,29.92,SW,223,6.0,11.0,59,0.00,,,0.02,VWS V14.01,2013-02-04 23:11:00,
2013-02-04 18:16:00,44.9,31.5,29.92,SW,236,3.0,11.0,59,0.00,,,0.02,VWS V14.01,2013-02-04 23:16:00,
2013-02-04 18:21:00,44.8,30.9,29.93,West,263,4.0,11.0,58,0.00,,,0.02,VWS V14.01,2013-02-04 23:21:00,
2013-02-04 18:26:00,44.9,31.0,29.93,WNW,287,3.0,11.0,58,0.00,,,0.02,VWS V14.01,2013-02-04 23:26:00,
2013-02-04 18:31:00,44.8,31.4,29.93,WSW,238,3.0,11.0,59,0.00,,,0.02,VWS V14.01,2013-02-04 23:31:00,
2013-02-04 18:36:00,44.9,31.0,29.94,NW,305,5.0,11.0,58,0.00,,,0.02,VWS V14.01,2013-02-04 23:36:00,
2013-02-04 18:41:00,44.8,30.9,29.94,West,270,3.0,11.0,58,0.00,,,0.02,VWS V14.01,2013-02-04 23:41:00,
2013-02-04 18:46:00,44.6,31.2,29.94,SSW,202,7.0,11.0,59,0.00,,,0.02,VWS V14.01,2013-02-04 23:46:00,
2013-02-04 18:51:00,44.6,31.2,29.94,SW,234,4.0,11.0,59,0.00,,,0.02,VWS V14.01,2013-02-04 23:51:00,
2013-02-04 18:56:00,44.2,32.4,29.94,SW,225,7.0,11.0,63,0.00,,,0.02,VWS V14.01,2013-02-04 23:56:00,
2013-02-04 19:01:00,43.6,33.8,29.94,WSW,239,10.0,11.0,68,0.00,,,0.02,VWS V14.01,2013-02-05 00:01:00,
2013-02-04 19:06:00,43.2,34.1,29.94,SW,217,6.0,11.0,70,0.00,,,0.02,VWS V14.01,2013-02-05 00:06:00,
2013-02-04 19:11:00,42.8,34.8,29.94,SW,227,12.0,12.0,73,0.00,,,0.02,VWS V14.01,2013-02-05 00:11:00,
2013-02-04 19:16:00,42.3,35.0,29.94,SW,219,5.0,11.0,75,0.00,,,0.02,VWS V14.01,2013-02-05 00:16:00,
2013-02-04 19:21:00,41.9,35.2,29.94,SW,218,2.0,11.0,77,0.01,,,0.03,VWS V14.01,2013-02-05 00:21:00,
2013-02-04 19:26:00,41.6,35.6,29.94,SW,220,3.0,11.0,79,0.01,,,0.03,VWS V14.01,2013-02-05 00:26:00,
2013-02-04 19:31:00,41.5,35.8,29.94,SSW,209,5.0,11.0,80,0.01,,,0.03,VWS V14.01,2013-02-05 00:31:00,
2013-02-04 19:36:00,41.3,35.9,29.94,SW,223,6.0,11.0,81,0.01,,,0.03,VWS V14.01,2013-02-05 00:36:00,
2013-02-04 19:41:00,41.3,36.2,29.94,WSW,257,4.0,11.0,82,0.01,,,0.03,VWS V14.01,2013-02-05 00:41:00,
2013-02-04 19:46:00,41.2,36.4,29.94,West,278,5.0,11.0,83,0.02,,,0.04,VWS V14.01,2013-02-05 00:46:00,
2013-02-04 19:51:00,41.2,36.7,29.95,SW,235,3.0,11.0,84,0.02,,,0.04,VWS V14.01,2013-02-05 00:51:00,
2013-02-04 19:56:00,41.1,36.6,29.95,SW,214,2.0,11.0,84,0.02,,,0.04,VWS V14.01,2013-02-05 00:56:00,
2013-02-04 20:01:00,40.9,36.8,29.95,SW,219,3.0,11.0,85,0.02,,,0.04,VWS V14.01,2013-02-05 01:01:00,
2013-02-04 20:06:00,40.9,37.0,29.94,SW,223,2.0,11.0,86,0.03,,,0.05,VWS V14.01,2013-02-05 01:06:00,
2013-02-04 20:11:00,40.8,36.9,29.94,SW,220,4.0,11.0,86,0.03,,,0.05,VWS V14.01,2013-02-05 01:11:00,
2013-02-04 20:16:00,40.8,37.2,29.94,SSW,213,4.0,11.0,87,0.04,,,0.06,VWS V14.01,2013-02-05 01:16:00,
2013-02-04 20:21:00,40.8,37.2,29.94,SSW,210,2.0,11.0,87,0.04,,,0.06,VWS V14.01,2013-02-05 01:21:00,
2013-02-04 20:26:00,40.6,37.3,29.94,SSE,157,3.0,11.0,88,0.03,,,0.06,VWS V14.01,2013-02-05 01:26:00,
2013-02-04 20:31:00,40.8,37.8,29.94,SW,214,6.0,11.0,89,0.03,,,0.06,VWS V14.01,2013-02-05 01:31:00,
2013-02-04 20:36:00,40.8,37.8,29.94,SW,216,4.0,11.0,89,0.04,,,0.07,VWS V14.01,2013-02-05 01:36:00,
2013-02-04 20:41:00,40.9,37.9,29.94,SW,236,8.0,11.0,89,0.04,,,0.07,VWS V14.01,2013-02-05 01:41:00,
2013-02-04 20:46:00,41.1,38.1,29.94,SSW,211,3.0,11.0,89,0.03,,,0.07,VWS V14.01,2013-02-05 01:46:00,
2013-02-04 20:51:00,41.1,38.1,29.94,SW,222,5.0,11.0,89,0.03,,,0.07,VWS V14.01,2013-02-05 01:51:00,
2013-02-04 20:56:00,41.2,38.2,29.94,SW,217,7.0,11.0,89,0.03,,,0.07,VWS V14.01,2013-02-05 01:56:00,
2013-02-04 21:01:00,41.2,38.2,29.94,WSW,238,5.0,11.0,89,0.03,,,0.07,VWS V14.01,2013-02-05 02:01:00,
2013-02-04 21:06:00,41.2,38.2,29.94,SW,222,2.0,11.0,89,0.02,,,0.07,VWS V14.01,2013-02-05 02:06:00,
2013-02-04 21:11:00,41.2,38.5,29.94,SSW,210,6.0,11.0,90,0.02,,,0.07,VWS V14.01,2013-02-05 02:11:00,
2013-02-04 21:16:00,41.2,38.5,29.94,SW,232,5.0,11.0,90,0.01,,,0.07,VWS V14.01,2013-02-05 02:16:00,
2013-02-04 21:21:00,41.3,38.6,29.94,SW,217,6.0,11.0,90,0.01,,,0.07,VWS V14.01,2013-02-05 02:21:00,
2013-02-04 21:26:00,41.3,38.6,29.94,SSW,211,4.0,11.0,90,0.01,,,0.07,VWS V14.01,2013-02-05 02:26:00,
2013-02-04 21:31:00,41.3,38.6,29.94,WSW,246,3.0,11.0,90,0.01,,,0.07,VWS V14.01,2013-02-05 02:31:00,
2013-02-04 21:36:00,41.5,38.8,29.95,SW,225,3.0,11.0,90,0.00,,,0.07,VWS V14.01,2013-02-05 02:36:00,
2013-02-04 21:41:00,41.6,38.9,29.95,SW,234,5.0,11.0,90,0.00,,,0.07,VWS V14.01,2013-02-05 02:41:00,
2013-02-04 21:46:00,41.6,38.6,29.95,SW,228,3.0,11.0,89,0.00,,,0.07,VWS V14.01,2013-02-05 02:46:00,
2013-02-04 21:51:00,41.6,38.6,29.95,SW,232,3.0,11.0,89,0.00,,,0.07,VWS V14.01,2013-02-05 02:51:00,
2013-02-04 21:56:00,41.8,38.8,29.95,SW,225,2.0,11.0,89,0.00,,,0.07,VWS V14.01,2013-02-05 02:56:00,
2013-02-04 22:01:00,41.8,38.8,29.95,SW,231,5.0,11.0,89,0.00,,,0.07,VWS V14.01,2013-02-05 03:01:00,
2013-02-04 22:06:00,41.8,38.8,29.95,WSW,238,2.0,11.0,89,0.00,,,0.07,VWS V14.01,2013-02-05 03:06:00,
2013-02-04 22:11:00,41.8,38.8,29.95,SW,227,7.0,11.0,89,0.00,,,0.07,VWS V14.01,2013-02-05 03:11:00,
2013-02-04 22:16:00,41.9,38.9,29.95,WSW,237,2.0,11.0,89,0.00,,,0.07,VWS V14.01,2013-02-05 03:16:00,
2013-02-04 22:22:00,41.9,38.9,29.95,WSW,251,5.0,11.0,89,0.00,,,0.07,VWS V14.01,2013-02-05 03:22:00,
2013-02-04 22:27:00,41.9,38.9,29.95,SW,234,5.0,11.0,89,0.00,,,0.07,VWS V14.01,2013-02-05 03:27:00,
2013-02-04 22:32:00,41.9,38.9,29.95,SW,225,4.0,11.0,89,0.00,,,0.07,VWS V14.01,2013-02-05 03:32:00,
2013-02-04 22:37:00,42.1,39.1,29.95,WSW,248,2.0,11.0,89,0.00,,,0.07,VWS V14.01,2013-02-05 03:37:00,
2013-02-04 22:42:00,42.2,39.2,29.95,WSW,239,5.0,11.0,89,0.00,,,0.07,VWS V14.01,2013-02-05 03:42:00,
2013-02-04 22:47:00,42.2,39.2,29.95,West,263,7.0,11.0,89,0.00,,,0.07,VWS V14.01,2013-02-05 03:47:00,
2013-02-04 22:52:00,42.3,39.0,29.95,SW,221,4.0,11.0,88,0.00,,,0.07,VWS V14.01,2013-02-05 03:52:00,
2013-02-04 22:57:00,42.3,39.0,29.95,WSW,238,3.0,11.0,88,0.00,,,0.07,VWS V14.01,2013-02-05 03:57:00,
2013-02-04 23:00:00,42.2,39.2,29.94,West,265,3.0,11.0,89,0.00,,,0.00,VWS V14.01,2013-02-05 04:00:00,
2013-02-04 23:02:00,42.3,39.0,29.95,West,277,6.0,11.0,88,0.00,,,0.07,VWS V14.01,2013-02-05 04:02:00,
2013-02-04 23:07:00,42.3,39.0,29.95,WSW,245,4.0,11.0,88,0.00,,,0.07,VWS V14.01,2013-02-05 04:07:00,
2013-02-04 23:10:00,42.2,39.2,29.94,West,269,3.0,11.0,89,0.00,,,0.00,VWS V14.01,2013-02-05 04:10:00,
2013-02-04 23:12:00,42.3,39.0,29.95,WSW,243,2.0,11.0,88,0.00,,,0.07,VWS V14.01,2013-02-05 04:12:00,
2013-02-04 23:17:00,42.3,39.0,29.95,WSW,243,3.0,11.0,88,0.00,,,0.07,VWS V14.01,2013-02-05 04:17:00,
2013-02-04 23:20:00,42.2,39.2,29.94,SW,226,4.0,11.0,89,0.00,,,0.00,VWS V14.01,2013-02-05 04:20:00,
2013-02-04 23:22:00,42.3,39.0,29.95,SSW,213,3.0,11.0,88,0.00,,,0.07,VWS V14.01,2013-02-05 04:22:00,
2013-02-04 23:27:00,42.3,39.3,29.95,SW,223,4.0,11.0,89,0.00,,,0.07,VWS V14.01,2013-02-05 04:27:00,
2013-02-04 23:30:00,42.2,38.9,29.94,SW,236,2.0,11.0,88,0.00,,,0.00,VWS V14.01,2013-02-05 04:30:00,
2013-02-04 23:32:00,42.3,39.3,29.95,SW,225,3.0,11.0,89,0.00,,,0.07,VWS V14.01,2013-02-05 04:32:00,
2013-02-04 23:37:00,42.3,39.3,29.94,West,259,3.0,11.0,89,0.00,,,0.07,VWS V14.01,2013-02-05 04:37:00,
2013-02-04 23:40:00,42.1,39.1,29.94,SW,228,0.0,11.0,89,0.00,,,0.00,VWS V14.01,2013-02-05 04:40:00,
2013-02-04 23:42:00,42.2,39.2,29.94,SW,232,4.0,11.0,89,0.00,,,0.07,VWS V14.01,2013-02-05 04:42:00,
2013-02-04 23:47:00,42.2,39.2,29.94,SW,219,3.0,11.0,89,0.00,,,0.07,VWS V14.01,2013-02-05 04:47:00,
2013-02-04 23:50:00,42.1,39.1,29.93,SW,232,2.0,11.0,89,0.00,,,0.00,VWS V14.01,2013-02-05 04:50:00,
2013-02-04 23:52:00,42.2,39.2,29.94,WSW,246,3.0,11.0,89,0.00,,,0.07,VWS V14.01,2013-02-05 04:52:00,
2013-02-04 23:57:00,42.2,39.2,29.94,SW,226,2.0,11.0,89,0.00,,,0.07,VWS V14.01,2013-02-05 04:57:00,